Time;durP1;ratioP1;P1;durP2;ratioP2;P2;SDS_P1;SDS_P2;PMS_P1;PMS_P2;Temp;Humidity;BMP_temperature;BMP_pressure;BME280_temperature;BME280_humidity;BME280_pressure;Samples;Min_cycle;Max_cycle;Signal;HPM_P1;HPM_P2
2024/01/05 00:01:50;;;;;;;;;;;12.50;54.30;;;12.58;57.33;99447.09;5015577;28;19929;-35
2024/01/05 00:04:19;;;;;;;;;;;12.50;54.30;;;12.57;58.14;99445.31;5015555;28;20393;-37
2024/01/05 00:06:49;;;;;;;;;;;12.40;54.30;;;12.55;56.99;99430.81;5015878;28;19932;-37
2024/01/05 00:09:17;;;;;;;;;;;12.40;54.40;;;12.55;58.27;99431.69;5013946;28;19926;-35
2024/01/05 00:11:47;;;;;;;;;;;12.40;54.40;;;12.53;58.42;99433.16;5015857;28;19988;-37
2024/01/05 00:14:15;;;;;;;;;;;12.40;54.40;;;12.52;57.52;99428.84;5015906;28;19932;-35
2024/01/05 00:16:43;;;;;;;;;;;12.40;54.50;;;12.52;57.89;99430.50;5014902;28;19925;-36
2024/01/05 00:19:12;;;;;;;;;;;12.30;54.40;;;12.48;58.28;99434.31;5014612;28;20005;-36
2024/01/05 00:21:40;;;;;;;;;;;12.30;54.50;;;12.49;57.78;99431.97;5015171;28;20056;-36
2024/01/05 00:24:09;;;;;;;;;;;12.30;54.50;;;12.49;57.84;99421.03;5015325;28;20373;-37
2024/01/05 00:26:41;;;;;;;;;;;12.30;54.50;;;12.47;57.76;99418.34;5015952;28;19932;-36
2024/01/05 00:29:09;;;;;;;;;;;12.30;54.50;;;12.47;57.89;99414.94;5014743;28;19926;-36
2024/01/05 00:31:37;;;;;;;;;;;12.30;54.50;;;12.47;57.70;99404.91;5016029;28;19933;-35
2024/01/05 00:34:05;;;;;;;;;;;12.30;54.60;;;12.46;57.63;99400.59;5008864;28;19925;-36
2024/01/05 00:36:33;;;;;;;;;;;12.30;54.60;;;12.44;57.77;99397.06;5016162;28;19925;-37
2024/01/05 00:39:02;;;;;;;;;;;12.30;54.60;;;12.46;58.18;99395.56;5014475;28;19972;-36
2024/01/05 00:41:31;;;;;;;;;;;12.30;54.60;;;12.45;58.31;99384.66;5014886;28;19930;-36
2024/01/05 00:43:59;;;;;;;;;;;12.30;54.60;;;12.46;57.90;99375.47;5014918;28;19960;-36
2024/01/05 00:46:27;;;;;;;;;;;12.30;54.60;;;12.47;57.90;99377.25;5015288;28;19936;-36
2024/01/05 00:48:55;;;;;;;;;;;12.30;54.60;;;12.48;58.40;99369.00;5014190;28;19964;-36
2024/01/05 00:51:23;;;;;;;;;;;12.30;54.50;;;12.48;57.44;99359.84;5015137;28;19925;-36
2024/01/05 00:53:51;;;;;;;;;;;12.30;54.50;;;12.49;57.83;99351.56;5014598;28;20419;-36
2024/01/05 00:56:19;;;;;;;;;;;12.30;54.50;;;12.51;57.48;99343.31;5014997;28;19933;-35
2024/01/05 00:58:48;;;;;;;;;;;12.30;54.50;;;12.51;57.19;99329.13;5013614;28;20400;-36
2024/01/05 01:01:16;;;;;;;;;;;12.30;54.50;;;12.54;57.28;99318.47;5014175;28;19931;-35
2024/01/05 01:03:44;;;;;;;;;;;12.40;54.50;;;12.56;57.50;99307.84;5013813;28;20393;-36
2024/01/05 01:06:12;;;;;;;;;;;12.40;54.50;;;12.56;57.58;99302.84;5017064;28;19926;-36
2024/01/05 01:08:40;;;;;;;;;;;12.40;54.50;;;12.59;57.36;99313.16;5028147;28;19957;-34
2024/01/05 01:11:13;;;;;;;;;;;12.40;54.50;;;12.62;57.26;99320.16;5023820;28;19960;-36
2024/01/05 01:13:41;;;;;;;;;;;12.40;54.40;;;12.64;57.49;99329.63;5029244;28;19960;-35
2024/01/05 01:16:11;;;;;;;;;;;12.40;54.40;;;12.63;57.77;99339.53;5019688;28;19961;-35
2024/01/05 01:18:39;;;;;;;;;;;12.40;54.40;;;12.61;56.86;99331.81;5013591;28;19953;-35
2024/01/05 01:21:07;;;;;;;;;;;12.50;54.40;;;12.66;57.55;99330.66;5006636;28;20007;-35
2024/01/05 01:23:35;;;;;;;;;;;12.50;54.40;;;12.69;57.42;99325.94;5013827;28;20020;-35
2024/01/05 01:26:04;;;;;;;;;;;12.50;54.30;;;12.72;57.57;99321.22;5013917;28;19936;-36
2024/01/05 01:28:31;;;;;;;;;;;12.50;54.20;;;12.74;56.65;99324.78;5013442;28;20033;-36
2024/01/05 01:30:59;;;;;;;;;;;12.50;54.20;;;12.76;56.53;99313.25;5013614;28;19936;-37
2024/01/05 01:33:29;;;;;;;;;;;12.50;54.10;;;12.76;56.50;99308.22;5014180;28;19932;-36
2024/01/05 01:35:57;;;;;;;;;;;12.60;54.20;;;12.77;57.37;99294.03;5013325;28;20231;-35
2024/01/05 01:38:25;;;;;;;;;;;12.50;54.10;;;12.75;57.13;99296.41;5013072;28;19941;-36
2024/01/05 01:40:55;;;;;;;;;;;12.60;54.10;;;12.75;57.39;99291.38;5013806;28;19929;-35
2024/01/05 01:43:24;;;;;;;;;;;12.60;54.10;;;12.75;56.95;99290.47;5014196;28;20024;-36
2024/01/05 01:45:52;;;;;;;;;;;12.60;54.00;;;12.73;57.20;99282.78;5013345;28;19973;-35
2024/01/05 01:48:20;;;;;;;;;;;12.60;54.00;;;12.74;56.60;99284.56;5013158;28;20377;-36
2024/01/05 01:50:50;;;;;;;;;;;12.60;54.00;;;12.73;57.15;99266.81;5013158;28;20286;-35
2024/01/05 01:53:19;;;;;;;;;;;12.60;54.00;;;12.70;57.10;99261.50;5013854;28;19925;-36
2024/01/05 01:55:47;;;;;;;;;;;12.60;54.00;;;12.69;57.12;99260.59;5013911;28;20016;-35
2024/01/05 01:58:15;;;;;;;;;;;12.60;54.10;;;12.68;57.36;99268.88;5013317;28;20399;-36
2024/01/05 02:00:43;;;;;;;;;;;12.60;54.10;;;12.67;56.68;99268.72;5013720;28;19929;-35
2024/01/05 02:03:11;;;;;;;;;;;12.60;54.10;;;12.65;57.07;99253.47;5005744;28;19926;-35
2024/01/05 02:05:39;;;;;;;;;;;12.50;54.10;;;12.64;57.57;99251.72;5013379;28;19925;-35
2024/01/05 02:08:09;;;;;;;;;;;12.50;54.10;;;12.62;56.93;99252.31;5012845;28;20433;-36
2024/01/05 02:10:36;;;;;;;;;;;12.50;54.20;;;12.60;57.32;99244.59;5012758;28;20296;-36
2024/01/05 02:13:05;;;;;;;;;;;12.50;54.30;;;12.58;57.34;99246.09;5013424;28;20312;-36
2024/01/05 02:15:33;;;;;;;;;;;12.50;54.30;;;12.56;56.92;99237.50;5013152;28;20417;-35
2024/01/05 02:18:01;;;;;;;;;;;12.40;54.30;;;12.55;57.21;99235.72;5013224;28;19936;-36
2024/01/05 02:20:29;;;;;;;;;;;12.40;54.40;;;12.53;58.03;99229.66;5012781;28;19929;-35
2024/01/05 02:22:57;;;;;;;;;;;12.40;54.40;;;12.52;57.54;99220.34;5012719;28;20028;-36
2024/01/05 02:25:26;;;;;;;;;;;12.40;54.50;;;12.51;57.84;99221.09;5012792;28;19948;-35
2024/01/05 02:27:54;;;;;;;;;;;12.40;54.50;;;12.48;57.63;99214.13;5012477;28;20024;-36
2024/01/05 02:30:22;;;;;;;;;;;12.30;54.50;;;12.49;57.99;99220.06;5012081;28;20369;-36
2024/01/05 02:32:50;;;;;;;;;;;12.30;55.10;;;12.46;57.81;99215.59;5012686;28;19980;-35
2024/01/05 02:35:18;;;;;;;;;;;12.30;54.50;;;12.45;57.45;99215.47;5012559;28;20374;-36
2024/01/05 02:37:46;;;;;;;;;;;12.30;54.60;;;12.45;57.80;99217.97;5012353;28;19996;-36
2024/01/05 02:40:14;;;;;;;;;;;12.30;54.60;;;12.45;58.15;99212.97;5011912;28;19937;-36
2024/01/05 02:42:43;;;;;;;;;;;12.30;54.60;;;12.45;58.04;99208.81;5012265;28;19932;-36
2024/01/05 02:45:11;;;;;;;;;;;12.30;54.60;;;12.45;58.19;99213.84;5004200;28;19941;-36
2024/01/05 02:47:39;;;;;;;;;;;12.30;54.60;;;12.45;57.44;99207.94;5012777;28;19929;-36
2024/01/05 02:50:09;;;;;;;;;;;12.30;54.60;;;12.46;58.46;99204.66;5011869;28;20305;-36
2024/01/05 02:52:37;;;;;;;;;;;12.30;54.60;;;12.47;57.65;99206.44;5012691;28;20019;-36
2024/01/05 02:55:06;;;;;;;;;;;12.30;54.50;;;12.48;57.79;99193.16;5012373;28;19973;-36
2024/01/05 02:57:33;;;;;;;;;;;12.30;54.50;;;12.48;57.22;99188.13;5012043;28;20380;-36
2024/01/05 03:00:04;;;;;;;;;;;12.30;54.50;;;12.49;57.20;99189.91;5011960;28;19936;-36
2024/01/05 03:02:32;;;;;;;;;;;12.30;54.50;;;12.52;57.69;99190.19;5012495;28;19925;-36
2024/01/05 03:05:00;;;;;;;;;;;12.30;54.50;;;12.54;57.47;99188.72;5012255;28;20016;-36
2024/01/05 03:07:28;;;;;;;;;;;12.30;54.50;;;12.56;58.13;99182.25;5011921;28;19925;-36
2024/01/05 03:09:56;;;;;;;;;;;12.30;54.50;;;12.58;57.30;99177.38;5009134;28;19968;-36
2024/01/05 03:12:24;;;;;;;;;;;12.40;54.50;;;12.61;58.11;99176.03;5012701;28;20281;-36
2024/01/05 03:14:52;;;;;;;;;;;12.40;54.40;;;12.63;57.62;99164.53;5012112;28;19926;-36
2024/01/05 03:17:21;;;;;;;;;;;12.40;54.40;;;12.63;57.18;99163.63;5011993;28;20000;-35
2024/01/05 03:19:49;;;;;;;;;;;12.40;54.40;;;12.64;57.25;99153.75;5011801;28;19930;-35
2024/01/05 03:22:17;;;;;;;;;;;12.40;54.40;;;12.63;57.17;99156.97;5011790;28;19930;-36
2024/01/05 03:24:45;;;;;;;;;;;12.40;54.40;;;12.64;57.49;99153.75;5021229;28;19949;-35
2024/01/05 03:27:14;;;;;;;;;;;12.40;54.40;;;12.67;56.58;99151.50;5031389;28;20393;-35
2024/01/05 03:29:42;;;;;;;;;;;12.40;54.30;;;12.66;56.91;99149.72;5030070;28;19964;-35
2024/01/05 03:32:10;;;;;;;;;;;12.50;54.30;;;12.71;57.12;99146.03;5019829;28;19925;-36
2024/01/05 03:34:40;;;;;;;;;;;12.50;54.20;;;12.74;56.83;99143.84;5015754;28;19973;-36
2024/01/05 03:37:08;;;;;;;;;;;12.50;54.10;;;12.76;57.04;99142.38;5014946;28;19925;-36
2024/01/05 03:39:36;;;;;;;;;;;12.50;54.10;;;12.74;56.93;99132.88;5014711;28;20020;-36
2024/01/05 03:42:04;;;;;;;;;;;12.60;54.10;;;12.77;56.60;99129.03;5015382;28;20377;-35
2024/01/05 03:44:32;;;;;;;;;;;12.60;54.10;;;12.76;56.95;99142.38;5015489;28;19926;-36
2024/01/05 03:47:00;;;;;;;;;;;12.60;54.00;;;12.76;56.76;99123.88;5015894;28;19925;-36
2024/01/05 03:49:28;;;;;;;;;;;12.60;54.00;;;12.76;56.75;99132.31;5014793;28;19926;-36
2024/01/05 03:51:58;;;;;;;;;;;12.60;54.00;;;12.74;56.73;99123.72;5015704;28;20322;-36
2024/01/05 03:54:26;;;;;;;;;;;12.60;53.90;;;12.73;57.17;99119.44;5015720;28;19929;-36
2024/01/05 03:56:54;;;;;;;;;;;12.60;53.90;;;12.72;57.10;99112.63;5015428;28;19951;-35
2024/01/05 03:59:22;;;;;;;;;;;12.60;53.90;;;12.71;56.83;99113.38;5014623;28;19926;-35
2024/01/05 04:01:50;;;;;;;;;;;12.60;54.00;;;12.71;57.14;99112.50;5015072;28;19925;-35
2024/01/05 04:04:18;;;;;;;;;;;12.60;54.00;;;12.70;57.32;99113.25;5015082;28;19937;-36
2024/01/05 04:06:46;;;;;;;;;;;12.60;54.00;;;12.67;56.69;99098.75;5015291;28;19934;-36
2024/01/05 04:09:16;;;;;;;;;;;12.50;53.90;;;12.67;57.40;99106.28;5011738;28;19926;-36
2024/01/05 04:11:44;;;;;;;;;;;12.50;54.00;;;12.65;57.81;99107.75;5016264;28;19948;-36
2024/01/05 04:14:12;;;;;;;;;;;12.50;54.00;;;12.64;57.36;99105.13;5016398;28;20179;-35
2024/01/05 04:16:40;;;;;;;;;;;12.50;54.10;;;12.61;57.25;99103.16;5016398;28;20354;-35
2024/01/05 04:19:09;;;;;;;;;;;12.50;54.10;;;12.60;57.76;99098.00;5014929;28;19925;-36
2024/01/05 04:21:37;;;;;;;;;;;12.50;54.20;;;12.58;57.67;99100.38;5015759;28;19949;-37
2024/01/05 04:24:05;;;;;;;;;;;12.40;54.20;;;12.56;57.80;99098.44;5014763;28;19925;-36
2024/01/05 04:26:34;;;;;;;;;;;12.40;54.30;;;12.49;57.37;99086.91;5015118;28;19972;-36
2024/01/05 04:29:02;;;;;;;;;;;12.40;54.90;;;12.51;57.34;99090.47;5014229;28;19969;-36
2024/01/05 04:31:30;;;;;;;;;;;12.40;54.40;;;12.49;57.25;99090.31;5017528;28;19933;-36
2024/01/05 04:33:58;;;;;;;;;;;12.30;54.30;;;12.49;57.75;99089.44;5015487;28;19930;-36
2024/01/05 04:36:26;;;;;;;;;;;12.30;54.30;;;12.47;57.90;99088.38;5014629;28;19937;-36
2024/01/05 04:38:54;;;;;;;;;;;12.30;54.40;;;12.45;58.04;99087.38;5013758;28;19933;-37
2024/01/05 04:41:22;;;;;;;;;;;12.30;54.40;;;12.43;57.84;99081.28;5014790;28;20373;-37
2024/01/05 04:43:51;;;;;;;;;;;12.30;54.50;;;12.43;57.80;99076.28;5014775;28;20024;-36
2024/01/05 04:46:19;;;;;;;;;;;12.30;54.50;;;12.43;57.90;99078.78;5007010;28;19976;-35
2024/01/05 04:48:47;;;;;;;;;;;12.30;54.50;;;12.43;58.01;99073.75;5014165;28;20008;-36
2024/01/05 04:51:15;;;;;;;;;;;12.30;54.50;;;12.41;58.49;99075.22;5014288;28;19972;-36
2024/01/05 04:53:43;;;;;;;;;;;12.20;54.40;;;12.41;58.08;99065.19;5014355;28;19925;-36
2024/01/05 04:56:11;;;;;;;;;;;12.30;54.60;;;12.41;57.42;99055.13;5014199;28;19926;-35
2024/01/05 04:58:39;;;;;;;;;;;12.20;54.40;;;12.41;56.91;99055.13;5013832;28;19926;-35
2024/01/05 05:01:08;;;;;;;;;;;12.30;54.50;;;12.33;57.61;99040.97;5014958;28;19993;-36
2024/01/05 05:03:36;;;;;;;;;;;12.30;54.50;;;12.44;58.13;99050.44;5015104;28;19929;-36
2024/01/05 05:06:04;;;;;;;;;;;12.30;54.50;;;12.44;57.07;99060.47;5015478;28;19972;-37
2024/01/05 05:08:32;;;;;;;;;;;12.30;54.50;;;12.46;58.02;99048.94;5054443;22;20407;-36
2024/01/05 05:11:00;;;;;;;;;;;12.30;54.40;;;12.47;57.56;99050.69;5073656;28;19972;-36
2024/01/05 05:13:28;;;;;;;;;;;12.30;54.40;;;12.40;58.44;99033.25;5074652;28;19929;-37
2024/01/05 05:15:56;;;;;;;;;;;12.30;54.40;;;12.49;57.53;99049.22;5073847;28;19924;-36
2024/01/05 05:18:25;;;;;;;;;;;12.30;54.40;;;12.48;57.33;99055.00;5073653;28;19924;-37
2024/01/05 05:20:54;;;;;;;;;;;12.30;54.40;;;12.54;57.37;99063.13;5074130;28;19970;-36
2024/01/05 05:23:22;;;;;;;;;;;12.30;54.30;;;12.56;57.51;99066.69;5066525;28;20402;-36
2024/01/05 05:25:50;;;;;;;;;;;12.40;54.40;;;12.57;57.81;99062.53;5075021;28;20011;-36
2024/01/05 05:28:17;;;;;;;;;;;12.40;54.30;;;12.57;57.36;99053.38;5073328;28;20416;-35
2024/01/05 05:30:45;;;;;;;;;;;12.40;54.30;;;12.58;57.56;99050.13;5073946;28;20015;-36
2024/01/05 05:33:13;;;;;;;;;;;12.40;54.30;;;12.57;57.32;99038.31;5073572;28;20011;-36
2024/01/05 05:35:43;;;;;;;;;;;12.40;54.30;;;12.62;56.89;99049.69;5074255;28;19932;-34
2024/01/05 05:38:11;;;;;;;;;;;12.40;54.20;;;12.67;57.81;99066.06;5074264;28;19924;-36
2024/01/05 05:40:39;;;;;;;;;;;12.50;54.30;;;12.67;57.46;99061.06;5074783;28;20011;-36
2024/01/05 05:43:07;;;;;;;;;;;12.50;54.10;;;12.69;57.11;99059.59;5074347;28;19964;-36
2024/01/05 05:45:35;;;;;;;;;;;12.50;54.10;;;12.72;56.93;99059.84;5073266;28;20011;-36
2024/01/05 05:48:04;;;;;;;;;;;12.50;54.00;;;12.69;56.59;99049.53;5072267;28;19929;-36
2024/01/05 05:50:32;;;;;;;;;;;12.50;54.00;;;12.70;56.97;99061.38;5072112;28;19928;-35
2024/01/05 05:53:01;;;;;;;;;;;12.60;54.00;;;12.74;56.70;99062.53;5072539;28;19970;-36
2024/01/05 05:55:30;;;;;;;;;;;12.50;53.90;;;12.74;56.95;99062.53;5072524;28;20334;-36
2024/01/05 05:57:58;;;;;;;;;;;12.60;53.90;;;12.73;56.63;99059.13;5072127;28;20392;-35
2024/01/05 06:00:28;;;;;;;;;;;12.60;53.90;;;12.70;57.36;99055.44;5072172;28;19928;-35
2024/01/05 06:02:56;;;;;;;;;;;12.50;53.90;;;12.69;56.44;99059.59;5072177;28;19963;-36
2024/01/05 06:05:24;;;;;;;;;;;12.50;53.90;;;12.68;57.02;99065.34;5064166;28;19932;-35
2024/01/05 06:07:52;;;;;;;;;;;12.50;53.90;;;12.67;57.82;99055.13;5072361;28;19924;-35
2024/01/05 06:10:22;;;;;;;;;;;12.50;53.90;;;12.62;57.45;99057.22;5071647;28;19930;-35
2024/01/05 06:12:50;;;;;;;;;;;12.50;53.90;;;12.63;57.55;99053.09;5072509;28;19924;-36
2024/01/05 06:15:18;;;;;;;;;;;12.50;53.90;;;12.61;57.94;99050.41;5072144;28;19944;-36
2024/01/05 06:17:46;;;;;;;;;;;12.50;54.00;;;12.59;56.66;99066.94;5072950;28;19924;-36
2024/01/05 06:20:14;;;;;;;;;;;12.50;54.00;;;12.54;57.53;99053.06;5072990;28;19928;-36
2024/01/05 06:22:42;;;;;;;;;;;12.40;54.10;;;12.56;56.96;99066.69;5075556;28;19931;-35
2024/01/05 06:25:11;;;;;;;;;;;12.40;54.10;;;12.54;57.29;99073.16;5074610;28;19979;-35
2024/01/05 06:27:40;;;;;;;;;;;12.40;54.10;;;12.53;57.35;99086.47;5072061;28;19950;-35
2024/01/05 06:30:10;;;;;;;;;;;12.40;54.20;;;12.51;57.31;99080.44;5071791;28;19924;-36
2024/01/05 06:32:38;;;;;;;;;;;12.40;54.20;;;12.50;57.89;99086.19;5072141;28;19971;-36
2024/01/05 06:35:07;;;;;;;;;;;12.40;54.30;;;12.48;57.89;99085.13;5071915;28;20064;-36
2024/01/05 06:37:35;;;;;;;;;;;12.30;54.20;;;12.46;57.67;99084.09;5071889;28;20367;-36
2024/01/05 06:40:04;;;;;;;;;;;12.30;54.30;;;12.45;56.94;99089.88;5071027;28;20036;-36
2024/01/05 06:42:32;;;;;;;;;;;12.30;54.40;;;12.43;58.08;99083.81;5071931;28;19930;-36
2024/01/05 06:45:01;;;;;;;;;;;12.30;54.40;;;12.40;57.34;99083.50;5071786;28;19925;-36
2024/01/05 06:47:29;;;;;;;;;;;12.30;54.40;;;12.35;57.71;99072.13;5071953;28;19978;-35
2024/01/05 06:49:57;;;;;;;;;;;12.30;54.40;;;12.40;57.98;99075.97;5071563;28;19970;-35
2024/01/05 06:52:25;;;;;;;;;;;12.30;54.50;;;12.39;57.81;99069.19;5063527;28;20294;-36
2024/01/05 06:54:53;;;;;;;;;;;12.30;54.50;;;12.41;57.57;99080.25;5071993;28;19931;-35
2024/01/05 06:57:21;;;;;;;;;;;12.30;54.50;;;12.40;57.94;99073.44;5072288;28;19928;-36
2024/01/05 06:59:49;;;;;;;;;;;12.30;54.50;;;12.41;57.85;99080.25;5071606;28;20387;-36
2024/01/05 07:02:19;;;;;;;;;;;12.30;54.50;;;12.41;57.80;99080.25;5076621;28;19978;-36
2024/01/05 07:04:46;;;;;;;;;;;12.30;54.40;;;12.43;57.75;99078.78;5076077;28;20435;-33
2024/01/05 07:07:14;;;;;;;;;;;12.30;54.40;;;12.47;57.70;99070.78;5075251;28;20361;-33
2024/01/05 07:09:44;;;;;;;;;;;12.30;54.40;;;12.46;57.70;99074.94;5072009;28;20313;-34
2024/01/05 07:12:12;;;;;;;;;;;12.30;54.40;;;12.49;57.44;99069.34;5075341;28;19967;-34
2024/01/05 07:14:40;;;;;;;;;;;12.30;54.40;;;12.49;57.19;99079.38;5075016;28;19925;-36
2024/01/05 07:17:07;;;;;;;;;;;12.30;54.30;;;12.52;57.73;99079.66;5075051;28;19930;-36
2024/01/05 07:19:37;;;;;;;;;;;12.30;54.90;;;12.54;57.84;99083.22;5074478;28;19928;-37
2024/01/05 07:22:05;;;;;;;;;;;12.40;54.40;;;12.59;56.95;99082.03;5074741;28;20407;-31
2024/01/05 07:24:33;;;;;;;;;;;12.40;54.30;;;12.58;57.29;99077.78;5074967;28;19924;-33
2024/01/05 07:27:01;;;;;;;;;;;12.40;54.30;;;12.60;57.55;99083.81;5075060;28;19924;-40
2024/01/05 07:29:29;;;;;;;;;;;12.40;54.20;;;12.62;57.33;99082.34;5066503;28;20387;-32
2024/01/05 07:31:57;;;;;;;;;;;12.40;54.20;;;12.62;57.74;99082.34;5074918;28;20011;-32
2024/01/05 07:34:25;;;;;;;;;;;12.40;54.20;;;12.63;57.23;99080.72;5074502;28;19979;-32
2024/01/05 07:36:54;;;;;;;;;;;12.40;54.10;;;12.66;56.21;99079.38;5074600;28;19925;-32
2024/01/05 07:39:22;;;;;;;;;;;12.40;54.10;;;12.70;57.01;99083.97;5073878;28;19932;-35
2024/01/05 07:41:50;;;;;;;;;;;12.50;54.10;;;12.65;56.87;99065.03;5074835;28;19931;-33
2024/01/05 07:44:18;;;;;;;;;;;12.50;54.10;;;12.72;56.73;99079.97;5074309;28;20319;-34
2024/01/05 07:46:46;;;;;;;;;;;12.50;54.00;;;12.72;56.81;99074.94;5074754;28;19931;-34
2024/01/05 07:49:14;;;;;;;;;;;12.50;53.90;;;12.74;57.05;99078.50;5073693;28;20023;-36
2024/01/05 07:51:42;;;;;;;;;;;12.50;53.90;;;12.75;56.94;99082.78;5074641;28;19924;-36
2024/01/05 07:54:12;;;;;;;;;;;12.50;53.90;;;12.73;56.62;99086.75;5074108;28;20027;-34
2024/01/05 07:56:40;;;;;;;;;;;12.60;53.90;;;12.74;56.87;99081.00;5074269;28;19925;-32
2024/01/05 07:59:08;;;;;;;;;;;12.50;53.80;;;12.72;56.58;99085.00;5073585;28;20024;-33
2024/01/05 08:01:36;;;;;;;;;;;12.60;53.90;;;12.72;57.29;99074.94;5074250;28;20256;-33
2024/01/05 08:04:04;;;;;;;;;;;12.60;53.90;;;12.70;57.25;99068.91;5074461;28;19947;-34
2024/01/05 08:06:32;;;;;;;;;;;12.60;53.90;;;12.69;57.14;99064.59;5074241;28;20283;-34
2024/01/05 08:09:00;;;;;;;;;;;12.60;53.90;;;12.69;56.68;99073.78;5071126;28;20417;-35
2024/01/05 08:11:30;;;;;;;;;;;12.50;53.80;;;12.63;56.87;99059.00;5065624;28;20303;-35
2024/01/05 08:13:58;;;;;;;;;;;12.50;53.80;;;12.65;56.68;99057.50;5074409;28;20392;-32
2024/01/05 08:16:26;;;;;;;;;;;12.50;53.80;;;12.65;56.46;99057.50;5073753;28;19933;-31
2024/01/05 08:18:54;;;;;;;;;;;12.50;53.90;;;12.64;56.93;99054.84;5073781;28;20022;-31
2024/01/05 08:21:22;;;;;;;;;;;12.50;53.90;;;12.63;57.41;99048.94;5073623;28;20019;-32
2024/01/05 08:23:50;;;;;;;;;;;12.50;53.90;;;12.60;56.77;99046.13;5074263;28;19925;-31
2024/01/05 08:26:18;;;;;;;;;;;12.50;54.00;;;12.60;56.88;99057.78;5073537;28;19975;-31
2024/01/05 08:28:48;;;;;;;;;;;12.50;54.00;;;12.57;57.10;99048.34;5073004;28;20045;-30
2024/01/05 08:31:16;;;;;;;;;;;12.50;54.00;;;12.53;57.35;99036.22;5073747;28;20023;-32
2024/01/05 08:33:44;;;;;;;;;;;12.40;54.00;;;12.48;57.44;99033.28;5073728;28;20272;-33
2024/01/05 08:36:12;;;;;;;;;;;12.40;54.10;;;12.50;57.06;99035.94;5073396;28;19925;-32
2024/01/05 08:38:40;;;;;;;;;;;12.40;54.10;;;12.52;57.08;99039.47;5073641;28;19970;-33
2024/01/05 08:41:08;;;;;;;;;;;12.40;54.20;;;12.51;57.97;99042.75;5072723;28;20019;-33
2024/01/05 08:43:38;;;;;;;;;;;12.40;54.20;;;12.50;58.25;99035.94;5066194;28;19936;-32
2024/01/05 08:46:09;;;;;;;;;;;12.30;54.10;;;12.49;57.46;99029.13;5072448;28;21610;-33
2024/01/05 08:48:39;;;;;;;;;;;12.30;54.20;;;12.48;57.61;99032.38;5072954;28;19924;-36
2024/01/05 08:51:07;;;;;;;;;;;12.30;54.20;;;12.47;57.94;99025.59;5073141;28;19925;-33
2024/01/05 08:53:35;;;;;;;;;;;12.30;54.20;;;12.40;57.07;99023.22;5073090;28;20379;-32
2024/01/05 08:56:03;;;;;;;;;;;12.30;54.30;;;12.46;57.10;99031.34;5073383;28;19924;-32
2024/01/05 08:58:31;;;;;;;;;;;12.30;54.30;;;12.41;57.44;99020.88;5072626;28;19924;-32
2024/01/05 09:00:58;;;;;;;;;;;12.30;54.30;;;12.46;57.39;99033.84;5073314;28;20027;-33
2024/01/05 09:03:29;;;;;;;;;;;12.30;54.30;;;12.46;57.22;99026.31;5073222;28;19932;-32
2024/01/05 09:05:57;;;;;;;;;;;12.30;54.30;;;12.46;57.20;99028.81;5072979;28;19989;-32
2024/01/05 09:08:25;;;;;;;;;;;12.30;54.30;;;12.48;57.60;99022.34;5072370;28;19928;-32
2024/01/05 09:10:54;;;;;;;;;;;12.30;54.30;;;12.46;57.51;99021.28;5070134;28;19959;-32
2024/01/05 09:13:22;;;;;;;;;;;12.30;54.80;;;12.49;57.46;99034.16;5073020;28;19925;-34
2024/01/05 09:15:50;;;;;;;;;;;12.30;54.20;;;12.53;57.55;99041.25;5072903;28;20019;-32
2024/01/05 09:18:18;;;;;;;;;;;12.30;54.10;;;12.47;57.62;99026.47;5072134;28;19924;-32
2024/01/05 09:20:48;;;;;;;;;;;12.40;54.20;;;12.56;57.25;99045.69;5073027;28;20349;-33
2024/01/05 09:23:16;;;;;;;;;;;12.40;54.20;;;12.58;56.74;99042.59;5071857;28;20299;-35
2024/01/05 09:25:44;;;;;;;;;;;12.40;54.20;;;12.61;57.31;99055.44;5072577;28;20401;-35
2024/01/05 09:28:13;;;;;;;;;;;12.40;54.10;;;12.63;56.95;99048.06;5072508;28;19924;-32
2024/01/05 09:30:41;;;;;;;;;;;12.40;54.10;;;12.62;57.14;99047.16;5072448;28;19924;-32
2024/01/05 09:33:09;;;;;;;;;;;12.40;54.10;;;12.65;57.08;99041.53;5072275;28;19931;-33
2024/01/05 09:35:38;;;;;;;;;;;12.40;54.10;;;12.65;57.00;99037.38;5072550;28;20299;-32
2024/01/05 09:38:07;;;;;;;;;;;12.40;54.00;;;12.66;57.04;99033.25;5072681;28;19975;-33
2024/01/05 09:40:35;;;;;;;;;;;12.50;54.00;;;12.68;57.49;99042.72;5063998;28;20299;-34
2024/01/05 09:43:03;;;;;;;;;;;12.50;54.00;;;12.67;57.57;99033.41;5072733;28;19967;-32
2024/01/05 09:45:31;;;;;;;;;;;12.50;54.00;;;12.73;56.87;99039.03;5071908;28;19990;-32
2024/01/05 09:48:00;;;;;;;;;;;12.50;53.90;;;12.76;56.35;99031.78;5071988;28;19991;-32
2024/01/05 09:50:29;;;;;;;;;;;12.60;54.00;;;12.78;57.03;99039.44;5068961;28;19937;-32
2024/01/05 09:52:57;;;;;;;;;;;12.50;53.80;;;12.78;56.76;99030.28;5067302;28;19975;-33
2024/01/05 09:55:26;;;;;;;;;;;12.60;53.90;;;12.59;57.35;99001.63;5072241;28;20349;-32
2024/01/05 09:57:54;;;;;;;;;;;12.60;53.90;;;12.80;56.62;99032.94;5072568;28;19931;-34
2024/01/05 10:00:23;;;;;;;;;;;12.60;53.90;;;12.79;56.58;99036.19;5071151;28;20414;-34
2024/01/05 10:02:55;;;;;;;;;;;12.60;53.90;;;12.81;57.30;99025.56;5072114;28;19928;-32
2024/01/05 10:05:25;;;;;;;;;;;12.60;53.80;;;12.73;56.98;99011.38;5071869;28;19924;-33
2024/01/05 10:07:53;;;;;;;;;;;12.60;53.80;;;12.82;56.97;99027.34;5072041;28;19925;-32
2024/01/05 10:10:21;;;;;;;;;;;12.60;53.80;;;12.78;57.29;99022.75;5067050;28;19974;-33
2024/01/05 10:12:50;;;;;;;;;;;12.60;53.90;;;12.77;56.68;99023.47;5071794;28;19963;-34
2024/01/05 10:15:18;;;;;;;;;;;12.60;53.90;;;12.70;56.66;99000.16;5071789;28;19930;-31
2024/01/05 10:17:47;;;;;;;;;;;12.60;53.90;;;12.76;56.13;99013.31;5071879;28;19924;-36
2024/01/05 10:20:16;;;;;;;;;;;12.50;53.80;;;12.73;57.58;99008.88;5072107;28;19925;-37
2024/01/05 10:22:46;;;;;;;;;;;12.60;54.00;;;12.74;57.34;99008.13;5073144;28;19931;-35
2024/01/05 10:25:16;;;;;;;;;;;12.50;53.90;;;12.71;57.35;99012.84;5074149;28;19975;-35
2024/01/05 10:27:44;;;;;;;;;;;12.50;53.90;;;12.69;57.38;99009.31;5074039;28;19997;-35
2024/01/05 10:30:28;;;;;;;;;;;12.50;53.90;;;12.67;56.89;99015.81;5075412;28;19939;-36
2024/01/05 10:33:04;;;;;;;;;;;12.50;53.90;;;12.64;57.16;99005.50;5079740;28;19925;-37
2024/01/05 10:35:34;;;;;;;;;;;12.50;53.90;;;12.63;56.74;99003.72;5079596;28;19924;-35
2024/01/05 10:38:06;;;;;;;;;;;12.50;54.00;;;12.62;56.71;99006.97;5080877;28;19996;-35
2024/01/05 10:40:34;;;;;;;;;;;12.40;53.90;;;12.61;56.38;99015.25;5078574;28;20011;-35
2024/01/05 10:43:09;;;;;;;;;;;12.50;54.00;;;12.58;57.19;98999.88;5076451;28;19971;-35
2024/01/05 10:45:39;;;;;;;;;;;12.40;54.00;;;12.56;56.85;99006.38;5076160;28;19994;-35
2024/01/05 10:48:08;;;;;;;;;;;12.40;54.00;;;12.56;57.01;99001.38;5075847;28;19932;-35
2024/01/05 10:50:37;;;;;;;;;;;12.40;54.10;;;12.55;57.02;99002.09;5068103;28;19925;-35
2024/01/05 10:53:08;;;;;;;;;;;12.40;54.10;;;12.54;57.71;98990.25;5076271;28;19924;-35
2024/01/05 10:55:37;;;;;;;;;;;12.40;54.10;;;12.53;57.43;99001.06;5075746;28;19978;-34
2024/01/05 10:58:06;;;;;;;;;;;12.40;54.10;;;12.52;57.32;99004.28;5075909;28;20341;-36
2024/01/05 11:00:34;;;;;;;;;;;12.30;54.00;;;12.51;56.79;98997.53;5075582;28;20345;-36
2024/01/05 11:03:11;;;;;;;;;;;12.30;54.00;;;12.53;56.88;99001.06;5075580;28;19932;-36
2024/01/05 11:05:41;;;;;;;;;;;12.30;54.00;;;12.52;57.47;99008.47;5067827;28;19968;-37
2024/01/05 11:08:24;;;;;;;;;;;12.40;54.10;;;12.53;57.18;99015.22;5075247;28;19955;-35
2024/01/05 11:10:58;;;;;;;;;;;12.40;54.10;;;12.54;56.53;99006.97;5074078;28;20392;-35
2024/01/05 11:13:44;;;;;;;;;;;12.40;54.10;;;12.44;57.24;98995.16;5096297;22;19956;-36
2024/01/05 11:16:24;;;;;;;;;;;12.40;54.00;;;12.57;57.39;99010.69;5075112;28;20019;-36
2024/01/05 11:19:07;;;;;;;;;;;12.40;54.00;;;12.60;57.70;99007.53;5068020;28;20374;-36
2024/01/05 11:21:40;;;;;;;;;;;12.40;54.00;;;12.63;56.49;99006.22;5074688;28;19929;-36
2024/01/05 11:24:08;;;;;;;;;;;12.40;53.90;;;12.64;57.12;99005.50;5074929;28;19928;-36